Time;durP1;ratioP1;P1;durP2;ratioP2;P2;SDS_P1;SDS_P2;PMS_P1;PMS_P2;Temp;Humidity;BMP_temperature;BMP_pressure;BME280_temperature;BME280_humidity;BME280_pressure;Samples;Min_cycle;Max_cycle;Signal;HPM_P1;HPM_P2
2023/04/08 00:00:35;;;;;;;12.02;6.20;;;5.10;99.90;;;;;;5132205;27;20043;-78
2023/04/08 00:03:21;;;;;;;13.27;7.30;;;5.00;99.90;;;;;;5132422;27;20051;-80
2023/04/08 00:06:07;;;;;;;12.88;7.43;;;5.00;99.90;;;;;;5131078;27;20064;-79
2023/04/08 00:08:53;;;;;;;12.77;7.30;;;4.90;99.90;;;;;;5131390;27;20495;-78
2023/04/08 00:11:39;;;;;;;13.73;7.25;;;4.90;99.90;;;;;;5132413;27;20460;-79
2023/04/08 00:14:25;;;;;;;13.70;7.20;;;4.90;99.90;;;;;;5132925;27;20049;-80
2023/04/08 00:17:11;;;;;;;10.57;6.10;;;4.90;99.90;;;;;;5131304;27;20043;-80
2023/04/08 00:19:58;;;;;;;15.55;7.78;;;4.90;99.90;;;;;;5133403;27;20399;-78
2023/04/08 00:22:44;;;;;;;12.85;7.45;;;4.80;99.90;;;;;;5131844;27;20420;-79
2023/04/08 00:25:31;;;;;;;12.07;7.70;;;4.80;99.90;;;;;;5136179;27;20134;-80
2023/04/08 00:28:17;;;;;;;15.20;8.23;;;4.80;99.90;;;;;;5133341;27;20043;-79
2023/04/08 00:31:03;;;;;;;15.63;8.27;;;4.70;99.90;;;;;;5132518;27;20421;-80
2023/04/08 00:33:49;;;;;;;14.50;7.15;;;4.70;99.90;;;;;;5131877;27;20127;-79
2023/04/08 00:36:35;;;;;;;16.00;9.00;;;4.70;99.90;;;;;;5132610;27;20043;-79
2023/04/08 00:39:22;;;;;;;13.93;8.45;;;4.70;99.90;;;;;;5113290;27;20070;-81
2023/04/08 00:42:08;;;;;;;16.73;8.35;;;4.70;99.90;;;;;;5130145;27;20047;-80
2023/04/08 00:44:54;;;;;;;12.75;8.48;;;4.70;99.90;;;;;;5134021;27;20043;-79
2023/04/08 00:47:41;;;;;;;12.63;8.35;;;4.70;99.90;;;;;;5133010;27;20071;-80
2023/04/08 00:50:27;;;;;;;15.50;8.90;;;4.60;99.90;;;;;;5136676;27;20129;-78
2023/04/08 00:53:21;;;;;;;13.30;8.43;;;4.60;99.90;;;;;;5141716;27;20043;-78
2023/04/08 00:56:07;;;;;;;13.18;7.68;;;4.60;99.90;;;;;;5136063;27;20043;-79
2023/04/08 00:58:54;;;;;;;15.45;8.68;;;4.50;99.90;;;;;;5130234;27;20051;-79
2023/04/08 01:02:13;;;;;;;17.60;9.60;;;4.50;99.90;;;;;;5136004;27;20069;-79
2023/04/08 01:05:25;;;;;;;16.38;8.93;;;4.50;99.90;;;;;;5131136;27;20055;-78
2023/04/08 01:08:12;;;;;;;14.70;8.27;;;4.40;99.90;;;;;;5108133;27;20432;-79
2023/04/08 01:11:02;;;;;;;17.58;9.10;;;4.40;99.90;;;;;;5132258;27;20502;-80
2023/04/08 01:13:50;;;;;;;17.60;10.20;;;4.40;99.90;;;;;;5130414;27;20183;-80
2023/04/08 01:16:41;;;;;;;18.63;9.85;;;4.40;99.90;;;;;;5131663;27;20045;-80
2023/04/08 01:19:31;;;;;;;15.90;8.80;;;4.30;99.90;;;;;;5129098;27;20410;-80
2023/04/08 01:22:32;;;;;;;18.00;9.70;;;4.30;99.90;;;;;;5131751;27;20466;-81
2023/04/08 01:25:26;;;;;;;20.08;11.23;;;4.30;99.90;;;;;;5131396;27;20639;-80
2023/04/08 01:28:16;;;;;;;16.35;9.85;;;4.30;99.90;;;;;;5131379;27;20053;-80
2023/04/08 01:31:03;;;;;;;19.98;10.85;;;4.20;99.90;;;;;;5131491;27;20039;-80
2023/04/08 01:33:51;;;;;;;16.55;10.25;;;4.20;99.90;;;;;;5131668;27;20051;-80
2023/04/08 01:36:38;;;;;;;19.25;10.07;;;4.20;99.90;;;;;;5130773;27;20035;-80
2023/04/08 01:39:25;;;;;;;16.85;10.15;;;4.10;99.90;;;;;;5122650;27;20108;-78
2023/04/08 01:42:13;;;;;;;16.83;9.73;;;4.10;99.90;;;;;;5131571;27;20047;-78
2023/04/08 01:45:00;;;;;;;19.83;11.50;;;4.00;99.90;;;;;;5113783;27;20047;-80
2023/04/08 01:47:48;;;;;;;17.75;10.73;;;4.00;99.90;;;;;;5133579;27;20051;-78
2023/04/08 01:50:35;;;;;;;17.25;10.38;;;4.00;99.90;;;;;;5133911;27;20070;-78
2023/04/08 01:53:21;;;;;;;17.77;9.35;;;3.90;99.90;;;;;;5113521;27;20047;-79
2023/04/08 01:56:12;;;;;;;18.60;10.80;;;3.90;99.90;;;;;;5130787;27;20095;-78
2023/04/08 01:59:01;;;;;;;17.17;9.82;;;3.90;99.90;;;;;;5131500;27;20070;-78
2023/04/08 02:01:48;;;;;;;17.45;11.02;;;3.80;99.90;;;;;;5097501;27;20081;-77
2023/04/08 02:04:35;;;;;;;18.25;10.80;;;3.80;99.90;;;;;;5131043;27;20081;-79
2023/04/08 02:07:21;;;;;;;17.50;10.35;;;3.80;99.90;;;;;;5112527;27;20050;-80
2023/04/08 02:10:08;;;;;;;21.40;11.10;;;3.80;99.90;;;;;;5131089;27;20051;-79
2023/04/08 02:12:55;;;;;;;19.02;10.77;;;3.80;99.90;;;;;;5130711;27;20111;-79
2023/04/08 02:15:55;;;;;;;21.70;11.20;;;3.80;99.90;;;;;;5113603;27;20101;-79
2023/04/08 02:18:44;;;;;;;20.55;11.88;;;3.80;99.90;;;;;;5130074;27;20039;-80
2023/04/08 02:21:42;;;;;;;22.63;12.93;;;3.70;99.90;;;;;;5130852;27;20050;-79
2023/04/08 02:24:29;;;;;;;17.48;11.65;;;3.70;99.90;;;;;;5131228;27;20043;-79
2023/04/08 02:27:16;;;;;;;23.35;11.95;;;3.70;99.90;;;;;;5132518;27;20076;-80
2023/04/08 02:30:07;;;;;;;23.35;12.65;;;3.70;99.90;;;;;;5133812;27;20065;-79
2023/04/08 02:32:55;;;;;;;20.00;11.95;;;3.70;99.90;;;;;;5115147;27;20067;-78
2023/04/08 02:35:43;;;;;;;22.77;14.35;;;3.70;99.90;;;;;;5130485;27;20047;-78
2023/04/08 02:38:30;;;;;;;20.30;12.32;;;3.60;99.90;;;;;;5111347;27;20514;-78
2023/04/08 02:41:16;;;;;;;25.38;14.38;;;3.60;99.90;;;;;;5112074;27;20135;-79
2023/04/08 02:44:02;;;;;;;24.25;14.70;;;3.60;99.90;;;;;;5130612;27;20039;-79
2023/04/08 02:46:48;;;;;;;20.23;13.13;;;3.60;99.90;;;;;;5136821;27;20047;-77
2023/04/08 02:49:34;;;;;;;22.08;13.95;;;3.60;99.90;;;;;;5131966;27;20051;-78
2023/04/08 02:52:20;;;;;;;23.65;13.57;;;3.60;99.90;;;;;;5131339;28;20047;-79
2023/04/08 02:55:08;;;;;;;21.75;13.63;;;3.60;99.90;;;;;;5131043;28;20080;-81
2023/04/08 02:57:54;;;;;;;23.25;14.43;;;3.60;99.90;;;;;;5130282;28;20093;-80
2023/04/08 03:00:41;;;;;;;26.85;15.68;;;3.60;99.90;;;;;;5130465;28;20513;-78
2023/04/08 03:03:28;;;;;;;26.38;15.35;;;3.60;99.90;;;;;;5130495;28;20121;-79
2023/04/08 03:06:14;;;;;;;27.20;16.63;;;3.50;99.90;;;;;;5130666;28;20053;-78
2023/04/08 03:09:00;;;;;;;24.60;15.68;;;3.50;99.90;;;;;;5129957;28;20039;-78
2023/04/08 03:11:51;;;;;;;28.40;16.77;;;3.50;99.90;;;;;;5130918;27;20085;-79
2023/04/08 03:14:38;;;;;;;27.42;15.70;;;3.50;99.90;;;;;;5134351;27;20104;-79
2023/04/08 03:17:24;;;;;;;23.15;14.02;;;3.50;99.90;;;;;;5117055;27;20097;-80
2023/04/08 03:20:10;;;;;;;29.88;17.63;;;3.50;99.90;;;;;;5117228;27;20104;-80
2023/04/08 03:22:56;;;;;;;28.27;16.48;;;3.50;99.90;;;;;;5117236;27;20047;-79
2023/04/08 03:25:43;;;;;;;28.20;15.52;;;3.40;99.90;;;;;;5136118;27;20514;-79
2023/04/08 03:28:29;;;;;;;27.48;15.63;;;3.40;99.90;;;;;;5137191;27;20074;-79
2023/04/08 03:31:15;;;;;;;28.17;15.50;;;3.40;99.90;;;;;;5118338;27;20084;-77
2023/04/08 03:34:01;;;;;;;28.05;16.75;;;3.40;99.90;;;;;;5137544;27;20047;-80
2023/04/08 03:36:47;;;;;;;26.83;16.45;;;3.40;99.90;;;;;;5135060;27;20047;-80
2023/04/08 03:39:33;;;;;;;26.85;17.10;;;3.30;99.90;;;;;;5114980;27;20055;-78
2023/04/08 03:42:20;;;;;;;29.70;18.65;;;3.30;99.90;;;;;;5115639;27;20047;-78
2023/04/08 03:45:06;;;;;;;38.30;19.92;;;3.40;99.90;;;;;;5134226;27;20039;-78
2023/04/08 03:47:53;;;;;;;31.13;17.65;;;3.30;99.90;;;;;;5133504;27;20112;-78
2023/04/08 03:50:39;;;;;;;27.30;16.02;;;3.30;99.90;;;;;;5115245;27;20080;-78
2023/04/08 03:53:28;;;;;;;25.98;15.98;;;3.30;99.90;;;;;;5133696;27;20046;-78
2023/04/08 03:56:14;;;;;;;26.80;16.08;;;3.30;99.90;;;;;;5133362;27;20482;-78
2023/04/08 03:59:00;;;;;;;27.77;15.93;;;3.30;99.90;;;;;;5115663;27;20134;-78
2023/04/08 04:01:47;;;;;;;29.92;17.23;;;3.20;99.90;;;;;;5133508;27;20043;-78
2023/04/08 04:04:34;;;;;;;25.15;15.63;;;3.20;99.90;;;;;;5114948;27;20888;-78
2023/04/08 04:07:20;;;;;;;25.33;16.15;;;3.10;99.90;;;;;;5114752;27;20490;-78
2023/04/08 04:10:07;;;;;;;26.85;16.55;;;3.10;99.90;;;;;;5133613;27;20436;-79
2023/04/08 04:12:53;;;;;;;27.52;15.95;;;3.10;99.90;;;;;;5119431;27;20454;-80
2023/04/08 04:15:40;;;;;;;31.10;17.77;;;3.10;99.90;;;;;;5136242;27;20047;-79
2023/04/08 04:18:26;;;;;;;33.55;18.52;;;3.00;99.90;;;;;;5120235;27;20075;-79
2023/04/08 04:21:12;;;;;;;32.83;17.52;;;3.00;99.90;;;;;;5133621;27;20054;-80
2023/04/08 04:23:59;;;;;;;29.45;17.75;;;3.00;99.90;;;;;;5120875;27;20133;-78
2023/04/08 04:26:45;;;;;;;25.90;16.40;;;3.10;99.90;;;;;;5132198;27;20043;-79
2023/04/08 04:29:31;;;;;;;26.30;15.88;;;3.10;99.90;;;;;;5132838;27;20450;-78
2023/04/08 04:32:18;;;;;;;28.10;16.55;;;3.00;99.90;;;;;;5132550;27;20047;-79
2023/04/08 04:35:05;;;;;;;30.10;15.75;;;3.00;99.90;;;;;;5113799;27;20090;-79
2023/04/08 04:37:51;;;;;;;26.25;15.43;;;3.00;99.90;;;;;;5132032;27;20145;-80
2023/04/08 04:40:38;;;;;;;27.13;16.08;;;3.00;99.90;;;;;;5132645;27;20058;-79
2023/04/08 04:43:24;;;;;;;33.03;18.33;;;3.00;99.90;;;;;;5117538;27;20047;-79
2023/04/08 04:46:10;;;;;;;25.85;14.10;;;3.00;99.90;;;;;;5133266;27;20104;-80
2023/04/08 04:48:57;;;;;;;27.05;14.80;;;2.90;99.90;;;;;;5101974;27;20137;-78
2023/04/08 04:51:43;;;;;;;24.95;15.25;;;2.90;99.90;;;;;;5132355;27;20136;-77
2023/04/08 04:54:29;;;;;;;26.55;14.10;;;2.90;99.90;;;;;;5114590;27;20058;-78
2023/04/08 04:57:15;;;;;;;25.15;15.45;;;2.90;99.90;;;;;;5099693;27;20394;-80
2023/04/08 05:00:02;;;;;;;28.88;16.13;;;2.80;99.90;;;;;;5113267;27;20502;-79
2023/04/08 05:02:48;;;;;;;24.98;15.88;;;2.80;99.90;;;;;;5133342;27;20082;-79
2023/04/08 05:05:34;;;;;;;22.15;14.07;;;2.80;99.90;;;;;;5132710;27;20486;-79
2023/04/08 05:08:21;;;;;;;27.90;16.02;;;2.80;99.90;;;;;;5100691;27;20054;-78
2023/04/08 05:11:10;;;;;;;29.77;16.88;;;2.80;99.90;;;;;;5137836;27;20047;-80
2023/04/08 05:13:56;;;;;;;28.23;16.75;;;2.80;99.90;;;;;;5132804;27;20559;-80
2023/04/08 05:16:44;;;;;;;27.27;15.98;;;2.80;99.90;;;;;;5118089;27;20047;-80
2023/04/08 05:19:30;;;;;;;23.20;13.98;;;2.80;99.90;;;;;;5132029;27;20411;-80
2023/04/08 05:22:16;;;;;;;25.13;15.50;;;2.80;99.90;;;;;;5112569;27;20081;-79
2023/04/08 05:25:02;;;;;;;27.67;16.40;;;2.80;99.90;;;;;;5115889;27;20055;-76
2023/04/08 05:27:48;;;;;;;26.65;16.20;;;2.80;99.90;;;;;;5132031;27;20070;-77
2023/04/08 05:30:35;;;;;;;25.45;15.07;;;2.80;99.90;;;;;;5112722;27;20547;-80
2023/04/08 05:33:21;;;;;;;25.05;14.98;;;2.80;99.90;;;;;;5099260;27;20146;-81
2023/04/08 05:36:07;;;;;;;26.30;15.50;;;2.90;99.90;;;;;;5118415;27;20460;-79
2023/04/08 05:38:53;;;;;;;29.08;16.00;;;2.90;99.90;;;;;;5134964;27;20058;-79
2023/04/08 05:41:39;;;;;;;36.22;18.35;;;3.00;99.90;;;;;;5131684;27;20173;-79
2023/04/08 05:44:25;;;;;;;28.75;15.93;;;3.00;99.90;;;;;;5131178;27;20505;-79
2023/04/08 05:47:13;;;;;;;23.13;13.98;;;3.10;99.90;;;;;;5132115;27;20103;-80
2023/04/08 05:49:59;;;;;;;28.80;16.50;;;3.20;99.90;;;;;;5099058;27;20055;-78
2023/04/08 05:52:46;;;;;;;25.98;14.90;;;3.20;99.90;;;;;;5133132;27;20044;-79
2023/04/08 05:55:32;;;;;;;28.10;16.42;;;3.30;99.90;;;;;;5131276;27;20355;-80
2023/04/08 05:58:18;;;;;;;30.65;16.60;;;3.30;99.90;;;;;;5132669;27;20043;-81
2023/04/08 06:01:06;;;;;;;29.90;16.70;;;3.40;99.90;;;;;;5132887;27;20050;-79
2023/04/08 06:03:54;;;;;;;31.45;18.15;;;3.60;99.90;;;;;;5133708;27;20079;-80
2023/04/08 06:06:40;;;;;;;36.58;20.55;;;3.70;99.90;;;;;;5140197;27;20047;-78
2023/04/08 06:09:27;;;;;;;27.63;15.50;;;3.80;99.90;;;;;;5132724;27;20051;-79
2023/04/08 06:12:13;;;;;;;27.27;15.05;;;3.90;99.90;;;;;;5139629;27;20054;-79
2023/04/08 06:14:59;;;;;;;35.30;16.77;;;4.00;99.90;;;;;;5117385;27;20054;-79
2023/04/08 06:17:45;;;;;;;30.17;15.45;;;4.10;99.90;;;;;;5131653;27;20082;-79
2023/04/08 06:20:32;;;;;;;23.88;13.85;;;4.30;99.90;;;;;;5130825;27;20545;-78
2023/04/08 06:23:18;;;;;;;26.10;15.10;;;4.40;99.90;;;;;;5132815;27;20047;-82
2023/04/08 06:26:04;;;;;;;24.23;13.02;;;4.50;99.90;;;;;;5131096;27;20128;-79
2023/04/08 06:28:51;;;;;;;22.90;12.70;;;4.80;99.90;;;;;;5133476;27;20050;-81
2023/04/08 06:31:37;;;;;;;23.25;12.85;;;4.90;99.90;;;;;;5114934;27;20059;-77
2023/04/08 06:34:23;;;;;;;23.00;12.85;;;5.00;99.90;;;;;;5130497;27;20093;-80
2023/04/08 06:37:09;;;;;;;24.23;13.00;;;5.10;99.90;;;;;;5130319;27;20109;-80
2023/04/08 06:39:55;;;;;;;20.55;11.52;;;5.20;99.90;;;;;;5112852;27;20047;-78
2023/04/08 06:42:43;;;;;;;23.40;12.80;;;5.30;99.90;;;;;;5130465;27;20053;-80
2023/04/08 06:45:29;;;;;;;20.15;11.20;;;5.40;99.90;;;;;;5115764;27;20074;-78
2023/04/08 06:48:19;;;;;;;19.10;11.32;;;5.50;99.90;;;;;;5137230;27;20050;-80
2023/04/08 06:51:06;;;;;;;21.48;11.85;;;5.60;99.90;;;;;;5116353;27;20039;-79
2023/04/08 06:53:52;;;;;;;20.98;12.52;;;5.80;99.90;;;;;;5130837;28;20083;-79
2023/04/08 06:56:39;;;;;;;18.35;11.77;;;5.90;99.90;;;;;;5129841;28;20105;-79
2023/04/08 06:59:25;;;;;;;20.10;11.27;;;6.00;99.90;;;;;;5129605;28;20074;-79
2023/04/08 07:02:11;;;;;;;19.25;11.70;;;6.10;99.90;;;;;;5113975;28;20501;-79
2023/04/08 07:04:57;;;;;;;18.23;10.95;;;6.20;99.90;;;;;;5130636;28;20062;-77
2023/04/08 07:07:43;;;;;;;20.83;11.80;;;6.30;99.90;;;;;;5128870;28;20047;-78
2023/04/08 07:10:29;;;;;;;18.02;11.27;;;6.40;99.90;;;;;;5130241;28;20051;-80
2023/04/08 07:13:16;;;;;;;20.27;11.10;;;6.50;99.90;;;;;;5130922;28;20058;-80
2023/04/08 07:16:02;;;;;;;19.95;11.10;;;6.60;99.90;;;;;;5111712;28;20039;-78
2023/04/08 07:18:48;;;;;;;19.00;11.05;;;6.70;99.90;;;;;;5097839;28;20063;-81
2023/04/08 07:21:34;;;;;;;20.38;11.90;;;6.80;99.90;;;;;;5133352;28;20043;-81
2023/04/08 07:24:21;;;;;;;22.35;11.90;;;6.80;99.90;;;;;;5115590;28;20502;-80
2023/04/08 07:27:08;;;;;;;19.65;11.07;;;6.90;99.90;;;;;;5129306;28;20050;-81
2023/04/08 07:29:54;;;;;;;18.35;10.70;;;6.90;99.90;;;;;;5129401;28;20047;-79
2023/04/08 07:32:40;;;;;;;21.17;11.07;;;6.90;99.90;;;;;;5114594;28;20562;-81
2023/04/08 07:35:27;;;;;;;19.70;11.55;;;7.00;99.90;;;;;;5130874;28;20043;-81
2023/04/08 07:38:13;;;;;;;17.67;10.73;;;7.00;99.90;;;;;;5134442;28;20067;-80
2023/04/08 07:40:59;;;;;;;16.10;10.18;;;7.10;99.90;;;;;;5131425;28;20051;-79
2023/04/08 07:43:46;;;;;;;17.45;10.30;;;7.10;99.90;;;;;;5098020;28;20158;-81
2023/04/08 07:46:37;;;;;;;16.00;9.65;;;7.20;99.90;;;;;;5097459;28;20047;-79
2023/04/08 07:49:23;;;;;;;14.20;8.88;;;7.20;99.90;;;;;;5097298;28;20089;-79
2023/04/08 07:52:09;;;;;;;16.20;10.02;;;7.20;99.90;;;;;;5111071;28;20134;-78
2023/04/08 07:54:55;;;;;;;17.48;11.10;;;7.20;99.90;;;;;;5115949;28;20043;-81
2023/04/08 07:57:41;;;;;;;20.45;11.23;;;7.20;99.90;;;;;;5133000;28;20103;-79
2023/04/08 08:00:30;;;;;;;17.17;9.82;;;7.20;99.90;;;;;;5114559;27;20087;-80
2023/04/08 08:03:20;;;;;;;16.15;10.05;;;7.20;99.90;;;;;;5120987;27;20104;-78
2023/04/08 08:06:06;;;;;;;16.85;10.32;;;7.20;99.90;;;;;;5134570;27;20055;-80
2023/04/08 08:08:53;;;;;;;17.85;9.85;;;7.30;99.90;;;;;;5115069;27;20055;-79
2023/04/08 08:11:40;;;;;;;16.80;11.02;;;7.40;99.90;;;;;;5134137;27;20051;-78
2023/04/08 08:14:26;;;;;;;18.60;11.00;;;7.40;99.90;;;;;;5135262;27;20050;-79
2023/04/08 08:17:12;;;;;;;17.90;10.35;;;7.40;99.90;;;;;;5137987;27;20050;-79
2023/04/08 08:19:59;;;;;;;16.70;9.82;;;7.40;99.90;;;;;;5124129;27;20413;-78
2023/04/08 08:22:46;;;;;;;18.65;10.57;;;7.50;99.90;;;;;;5134047;27;20051;-79
2023/04/08 08:25:32;;;;;;;18.20;11.07;;;7.50;99.90;;;;;;5134195;27;20046;-79
2023/04/08 08:28:18;;;;;;;17.77;10.40;;;7.50;99.90;;;;;;5134416;27;20502;-80
2023/04/08 08:31:04;;;;;;;18.90;10.18;;;7.50;99.90;;;;;;5134625;27;20047;-79
2023/04/08 08:33:50;;;;;;;19.15;11.15;;;7.60;99.90;;;;;;5133885;27;20058;-78
2023/04/08 08:36:37;;;;;;;17.90;10.02;;;7.60;99.90;;;;;;5118846;27;20506;-78
2023/04/08 08:39:23;;;;;;;17.55;10.75;;;7.80;99.90;;;;;;5109139;27;20520;-80
2023/04/08 08:42:22;;;;;;;18.75;11.95;;;7.80;99.90;;;;;;5127075;27;20047;-82
2023/04/08 08:45:09;;;;;;;16.60;10.27;;;7.90;99.90;;;;;;5117510;27;20466;-81
2023/04/08 08:47:56;;;;;;;17.52;10.43;;;7.80;99.90;;;;;;5132689;27;20050;-81
2023/04/08 08:50:42;;;;;;;20.02;11.38;;;7.90;99.90;;;;;;5134253;27;20043;-82
2023/04/08 08:53:30;;;;;;;19.00;10.95;;;7.90;99.90;;;;;;5133778;27;20523;-82
2023/04/08 08:56:16;;;;;;;15.57;10.45;;;8.00;99.90;;;;;;5122876;27;20107;-80
2023/04/08 08:59:02;;;;;;;18.90;10.40;;;8.00;99.90;;;;;;5114842;27;20047;-82
2023/04/08 09:01:49;;;;;;;19.60;9.70;;;8.10;99.90;;;;;;5117505;27;20081;-79
2023/04/08 09:04:35;;;;;;;17.50;10.55;;;8.00;99.90;;;;;;5130925;27;20047;-81
2023/04/08 09:07:27;;;;;;;19.40;10.88;;;8.10;99.90;;;;;;5113476;27;20078;-81
2023/04/08 09:10:13;;;;;;;16.73;9.38;;;8.20;99.90;;;;;;5116455;27;20051;-80
2023/04/08 09:12:59;;;;;;;17.00;10.20;;;8.30;99.90;;;;;;5116188;27;20051;-79
2023/04/08 09:16:08;;;;;;;15.75;8.93;;;8.40;99.90;;;;;;5101940;27;20051;-81
2023/04/08 09:18:54;;;;;;;16.52;8.55;;;8.40;99.90;;;;;;5132286;27;20138;-82
2023/04/08 09:21:40;;;;;;;15.30;9.45;;;8.40;99.90;;;;;;5112868;27;20097;-81
2023/04/08 09:24:29;;;;;;;13.43;8.60;;;8.50;99.90;;;;;;5117093;27;20039;-81
2023/04/08 09:27:15;;;;;;;15.23;9.68;;;8.50;99.90;;;;;;5131335;27;20064;-80
2023/04/08 09:30:15;;;;;;;14.43;8.27;;;8.50;99.90;;;;;;5112793;27;20047;-80
2023/04/08 09:33:05;;;;;;;14.15;8.88;;;8.60;99.90;;;;;;5101437;27;20062;-80
2023/04/08 09:35:52;;;;;;;17.55;9.93;;;8.50;99.90;;;;;;5135323;27;20043;-80
2023/04/08 09:38:38;;;;;;;14.13;8.18;;;8.60;99.90;;;;;;5127825;27;20055;-80
2023/04/08 09:41:27;;;;;;;16.02;9.18;;;8.60;99.90;;;;;;5112332;27;20062;-80
2023/04/08 09:44:18;;;;;;;18.17;9.43;;;8.70;99.90;;;;;;5131676;27;20119;-79
2023/04/08 09:47:19;;;;;;;18.48;10.68;;;8.80;99.90;;;;;;5112460;27;20051;-80
2023/04/08 09:50:07;;;;;;;17.13;9.30;;;9.00;99.90;;;;;;5130884;27;20058;-81
2023/04/08 09:53:01;;;;;;;19.20;10.27;;;9.00;99.90;;;;;;5130603;27;20051;-80
2023/04/08 09:55:52;;;;;;;18.58;9.15;;;9.10;99.90;;;;;;5131109;27;20130;-80
2023/04/08 09:58:40;;;;;;;18.25;10.18;;;9.20;99.90;;;;;;5118574;27;20072;-80
2023/04/08 10:01:52;;;;;;;18.45;10.80;;;9.30;99.90;;;;;;5131006;27;20138;-81
2023/04/08 10:04:44;;;;;;;17.55;9.90;;;9.40;99.90;;;;;;5112561;27;20094;-80
2023/04/08 10:07:30;;;;;;;21.23;9.88;;;9.40;99.90;;;;;;5130712;27;20055;-81
2023/04/08 10:10:17;;;;;;;18.58;8.90;;;9.50;99.90;;;;;;5131862;27;20100;-81
2023/04/08 10:13:05;;;;;;;19.02;10.13;;;9.40;99.90;;;;;;5132567;27;20051;-78
2023/04/08 10:16:25;;;;;;;21.80;10.50;;;9.50;99.90;;;;;;5112392;27;20078;-81
2023/04/08 10:19:39;;;;;;;20.98;10.68;;;9.60;99.90;;;;;;5130548;27;20491;-77
2023/04/08 10:22:28;;;;;;;21.45;11.00;;;9.60;99.90;;;;;;5132826;27;20467;-81
2023/04/08 10:25:17;;;;;;;21.65;11.10;;;9.70;99.90;;;;;;5131691;27;20051;-80
2023/04/08 10:28:18;;;;;;;20.40;10.82;;;9.80;99.90;;;;;;5130206;27;20055;-82
2023/04/08 10:31:21;;;;;;;32.42;14.73;;;9.80;99.90;;;;;;5132477;27;20140;-81
2023/04/08 10:34:23;;;;;;;25.15;12.95;;;9.90;99.90;;;;;;5131106;27;20047;-81
2023/04/08 10:37:09;;;;;;;26.33;14.95;;;9.80;99.90;;;;;;5098368;27;20055;-80
2023/04/08 10:39:56;;;;;;;30.38;15.93;;;9.90;99.90;;;;;;5131663;27;20058;-78
2023/04/08 10:42:42;;;;;;;28.33;15.80;;;9.90;99.90;;;;;;5103538;27;20050;-82
2023/04/08 10:45:29;;;;;;;31.65;16.63;;;10.00;99.90;;;;;;5130232;27;20142;-81
2023/04/08 10:48:27;;;;;;;33.05;16.50;;;10.00;99.90;;;;;;5111525;27;20543;-82
2023/04/08 10:51:14;;;;;;;34.95;16.23;;;10.00;99.90;;;;;;5129621;27;20047;-82
2023/04/08 10:54:09;;;;;;;30.02;16.38;;;9.90;99.90;;;;;;5129828;27;20039;-82
2023/04/08 10:56:55;;;;;;;32.93;17.40;;;9.80;99.90;;;;;;5098289;28;20058;-82
2023/04/08 10:59:41;;;;;;;26.90;14.93;;;9.90;99.90;;;;;;5132309;28;20054;-82
2023/04/08 11:02:32;;;;;;;28.02;13.50;;;9.90;99.90;;;;;;5136624;28;20070;-77
2023/04/08 11:05:22;;;;;;;26.73;14.23;;;9.90;99.90;;;;;;5113208;28;20095;-81
2023/04/08 11:08:08;;;;;;;25.08;14.20;;;9.90;99.90;;;;;;5116872;28;20043;-83
2023/04/08 11:10:54;;;;;;;29.95;16.13;;;10.00;99.90;;;;;;5111769;28;20058;-80
2023/04/08 11:13:42;;;;;;;31.42;16.05;;;10.00;99.90;;;;;;5111676;28;20054;-81
2023/04/08 11:16:28;;;;;;;27.77;14.73;;;10.00;99.90;;;;;;5117775;28;20438;-81
2023/04/08 11:19:18;;;;;;;26.85;14.27;;;10.10;99.90;;;;;;5117174;28;20596;-79
2023/04/08 11:22:08;;;;;;;28.50;14.70;;;10.10;99.90;;;;;;5135055;28;20103;-81
2023/04/08 11:24:55;;;;;;;25.10;13.95;;;10.10;99.90;;;;;;5112691;28;20501;-79
2023/04/08 11:27:42;;;;;;;22.30;11.88;;;10.10;99.90;;;;;;5129770;28;20047;-82
2023/04/08 11:30:29;;;;;;;26.92;12.23;;;10.20;99.90;;;;;;5132489;28;20138;-82
2023/04/08 11:33:15;;;;;;;23.80;13.57;;;10.30;99.90;;;;;;5131507;27;20048;-80
2023/04/08 11:36:05;;;;;;;22.10;12.55;;;10.30;99.90;;;;;;5118793;27;20043;-82
2023/04/08 11:38:54;;;;;;;25.58;13.25;;;10.40;99.90;;;;;;5115631;27;20120;-83
2023/04/08 11:41:40;;;;;;;25.75;12.40;;;10.40;99.90;;;;;;5135249;27;20043;-83
2023/04/08 11:44:33;;;;;;;21.63;11.13;;;10.40;99.90;;;;;;5135358;27;20047;-83
2023/04/08 11:47:19;;;;;;;21.45;11.18;;;10.50;99.90;;;;;;5117003;27;20411;-82
2023/04/08 11:50:06;;;;;;;24.90;11.77;;;10.50;99.90;;;;;;5103496;27;20390;-82
2023/04/08 11:52:55;;;;;;;20.52;11.32;;;10.60;99.90;;;;;;5137125;27;20053;-81
2023/04/08 11:55:42;;;;;;;29.95;11.50;;;10.70;99.90;;;;;;5134506;27;20401;-82
2023/04/08 11:58:28;;;;;;;22.63;10.60;;;10.90;99.90;;;;;;5103142;27;20428;-82
2023/04/08 12:01:14;;;;;;;20.52;11.30;;;10.90;99.90;;;;;;5135275;27;20414;-81
2023/04/08 12:04:01;;;;;;;24.13;11.48;;;11.00;99.90;;;;;;5106021;27;20047;-83
2023/04/08 12:06:47;;;;;;;23.27;11.18;;;11.20;99.90;;;;;;5119316;27;20039;-81
2023/04/08 12:09:33;;;;;;;22.05;9.88;;;11.30;99.90;;;;;;5133259;27;20043;-81
2023/04/08 12:12:19;;;;;;;19.10;9.57;;;11.30;99.90;;;;;;5128040;27;20103;-82
2023/04/08 12:15:07;;;;;;;19.92;9.15;;;11.40;99.90;;;;;;5133697;27;20134;-81
2023/04/08 12:17:53;;;;;;;17.00;9.18;;;11.30;99.90;;;;;;5133224;27;20133;-82
2023/04/08 12:20:39;;;;;;;14.55;8.88;;;11.30;99.90;;;;;;5127055;27;20085;-81
2023/04/08 12:23:26;;;;;;;16.60;9.00;;;11.40;99.90;;;;;;5122664;27;20402;-82
2023/04/08 12:26:12;;;;;;;18.10;8.80;;;11.40;99.90;;;;;;5132980;27;20039;-80
2023/04/08 12:28:49;;;;;;;17.05;8.65;;;11.50;99.90;;;;;;5414681;22;20064;-81
2023/04/08 12:31:35;;;;;;;14.43;8.35;;;11.40;99.90;;;;;;5041540;28;20037;-79
2023/04/08 12:34:22;;;;;;;13.80;8.48;;;11.50;99.90;;;;;;5040567;28;20515;-80
2023/04/08 12:37:08;;;;;;;14.57;7.65;;;11.40;99.90;;;;;;5060712;28;20045;-81
2023/04/08 12:39:55;;;;;;;13.25;7.97;;;11.60;99.90;;;;;;5058791;28;20045;-82
2023/04/08 12:42:41;;;;;;;13.15;7.72;;;11.60;99.90;;;;;;5056066;28;20396;-79
2023/04/08 12:45:28;;;;;;;12.95;7.13;;;11.50;99.90;;;;;;5014630;28;20048;-79
2023/04/08 12:48:16;;;;;;;14.35;8.18;;;11.50;99.90;;;;;;5041112;28;20071;-79
2023/04/08 12:51:02;;;;;;;15.20;8.65;;;11.60;99.90;;;;;;5054982;28;20134;-78
2023/04/08 12:53:48;;;;;;;20.75;8.05;;;11.70;99.90;;;;;;5053384;28;20052;-81
2023/04/08 12:56:34;;;;;;;16.63;8.85;;;11.80;99.90;;;;;;5052415;28;20061;-81
2023/04/08 12:59:21;;;;;;;16.20;8.25;;;11.90;99.90;;;;;;5053536;28;20041;-80
2023/04/08 13:02:07;;;;;;;14.15;8.63;;;12.20;99.90;;;;;;5039609;28;20048;-81
2023/04/08 13:04:54;;;;;;;13.88;8.25;;;12.70;99.90;;;;;;5051446;28;20419;-82
2023/04/08 13:07:40;;;;;;;14.43;7.75;;;12.90;99.90;;;;;;5052443;28;20041;-79
2023/04/08 13:10:26;;;;;;;14.68;8.40;;;13.30;99.90;;;;;;5052087;28;20119;-82
2023/04/08 13:13:13;;;;;;;15.10;8.45;;;13.10;99.90;;;;;;5051840;28;20114;-81
2023/04/08 13:15:59;;;;;;;12.20;7.82;;;12.90;99.90;;;;;;5035457;28;20144;-82
2023/04/08 13:18:45;;;;;;;15.25;8.90;;;12.90;99.90;;;;;;5022055;28;20056;-78
2023/04/08 13:21:34;;;;;;;17.00;8.85;;;12.90;99.90;;;;;;5037624;28;20049;-81
2023/04/08 13:24:20;;;;;;;14.52;7.97;;;12.90;99.90;;;;;;5051572;28;20048;-80
2023/04/08 13:27:06;;;;;;;13.38;8.05;;;12.90;99.90;;;;;;5050970;28;20088;-80
2023/04/08 13:29:55;;;;;;;15.48;8.15;;;12.90;99.90;;;;;;5072146;28;20040;-80
2023/04/08 13:32:43;;;;;;;13.02;8.30;;;13.00;99.90;;;;;;5074044;28;20045;-81
2023/04/08 13:35:29;;;;;;;16.40;8.82;;;13.00;99.90;;;;;;5053184;28;20059;-80
2023/04/08 13:38:15;;;;;;;13.98;8.60;;;13.00;99.90;;;;;;5053731;28;20106;-82
2023/04/08 13:41:01;;;;;;;15.43;9.57;;;12.90;99.90;;;;;;5059069;28;20056;-83
2023/04/08 13:43:47;;;;;;;16.02;9.55;;;12.90;99.90;;;;;;5076066;28;20052;-79
2023/04/08 13:46:34;;;;;;;16.13;8.88;;;12.90;99.90;;;;;;5070966;28;20055;-81
2023/04/08 13:49:20;;;;;;;17.48;9.70;;;12.80;99.90;;;;;;5070557;28;20040;-82
2023/04/08 13:52:06;;;;;;;15.57;8.90;;;13.00;99.90;;;;;;5070930;28;20045;-83
2023/04/08 13:54:52;;;;;;;15.00;10.05;;;12.90;99.90;;;;;;5070350;28;20139;-82
2023/04/08 13:57:38;;;;;;;11.88;8.00;;;12.90;99.90;;;;;;5069676;28;20106;-84
2023/04/08 14:00:25;;;;;;;17.52;9.50;;;12.80;99.90;;;;;;5072032;28;20044;-81
2023/04/08 14:03:11;;;;;;;18.40;9.75;;;12.70;99.90;;;;;;5071092;28;20385;-80
2023/04/08 14:05:57;;;;;;;16.75;9.73;;;12.60;99.90;;;;;;5069821;28;20425;-79
2023/04/08 14:08:43;;;;;;;19.17;11.65;;;12.50;99.90;;;;;;5072684;28;20141;-80
2023/04/08 14:11:29;;;;;;;16.08;9.93;;;12.50;99.90;;;;;;5074118;28;20061;-81
2023/04/08 14:14:15;;;;;;;17.98;10.38;;;12.40;99.90;;;;;;5057352;28;20048;-82
2023/04/08 14:17:01;;;;;;;16.08;10.52;;;12.40;99.90;;;;;;5054390;28;20041;-79
2023/04/08 14:19:47;;;;;;;19.27;11.48;;;12.30;99.90;;;;;;5052593;28;20152;-80
2023/04/08 14:22:33;;;;;;;18.05;9.82;;;12.30;99.90;;;;;;5069933;28;20045;-79